Back to Top

Language: 

My Weather Underground Personal Weather Station Historical Data with Graphs...

Delerius Weather Station Historical Data
Daily Summary for October 22, 2017 Units:  English    Metric   Both
« Previous Day
Next Day »
Daily Weekly Monthly Yearly Custom
  High: Low: Average:
Temperature: 53.8 °F 48.0 °F 50.4 °F
Dew Point: 48.5 °F 42.5 °F 45 °F
Humidity: 90 % 72 % 82 %
Wind Speed: 23.0 mph 3.0 mph 15.1 mph
Wind Gust: 40.0 mph - -
Wind:- - WNW
Pressure: 29.97 in 29.46 in -
Precipitation: 0.00 in    
Historical Graphs
 
 
Tabular Data for October 22, 2017
Time Temperature Dew Point Pressure Wind Wind Speed Wind Gust Humidity Rainfall Rate (Hourly) solar Conditions
00:03 52.0 °F 48.5 °F 29.46 in West 19.0 mph 31.0 mph 88 % 0.00 in 0 W/m2
00:08 51.6 °F 48.2 °F 29.46 in WNW 18.0 mph 29.0 mph 88 % 0.00 in 0 W/m2
00:13 51.4 °F 48.0 °F 29.46 in West 16.0 mph 29.0 mph 88 % 0.00 in 0 W/m2
00:18 51.4 °F 47.7 °F 29.46 in West 16.0 mph 29.0 mph 87 % 0.00 in 0 W/m2
00:23 51.4 °F 47.7 °F 29.47 in West 15.0 mph 28.0 mph 87 % 0.00 in 0 W/m2
00:28 51.3 °F 47.5 °F 29.47 in West 16.0 mph 28.0 mph 87 % 0.00 in 0 W/m2
00:29 51.3 °F 47.5 °F 29.47 in West 16.0 mph 28.0 mph 87 % 0.00 in 0 W/m2
00:34 51.1 °F 47.3 °F 29.47 in West 19.0 mph 33.0 mph 87 % 0.00 in 0 W/m2
00:39 51.1 °F 47.3 °F 29.48 in West 18.0 mph 33.0 mph 87 % 0.00 in 0 W/m2
00:44 50.9 °F 47.2 °F 29.48 in West 15.0 mph 27.0 mph 87 % 0.00 in 0 W/m2
00:49 50.9 °F 46.9 °F 29.48 in West 17.0 mph 29.0 mph 86 % 0.00 in 0 W/m2
00:54 50.9 °F 46.9 °F 29.49 in West 19.0 mph 32.0 mph 86 % 0.00 in 0 W/m2
00:59 50.7 °F 47.0 °F 29.49 in West 18.0 mph 32.0 mph 87 % 0.00 in 0 W/m2
01:04 50.5 °F 46.8 °F 29.49 in West 16.0 mph 27.0 mph 87 % 0.00 in 0 W/m2
01:09 50.5 °F 46.8 °F 29.49 in West 16.0 mph 30.0 mph 87 % 0.00 in 0 W/m2
01:14 50.7 °F 46.7 °F 29.49 in West 18.0 mph 30.0 mph 86 % 0.00 in 0 W/m2
01:19 50.5 °F 46.5 °F 29.49 in West 19.0 mph 29.0 mph 86 % 0.00 in 0 W/m2
01:24 50.5 °F 46.5 °F 29.49 in WNW 18.0 mph 29.0 mph 86 % 0.00 in 0 W/m2
01:29 50.5 °F 46.2 °F 29.49 in West 18.0 mph 34.0 mph 85 % 0.00 in 0 W/m2
01:34 50.5 °F 46.5 °F 29.50 in West 18.0 mph 34.0 mph 86 % 0.00 in 0 W/m2
01:39 50.2 °F 46.5 °F 29.49 in West 19.0 mph 31.0 mph 87 % 0.00 in 0 W/m2
01:44 50.0 °F 46.3 °F 29.50 in West 18.0 mph 31.0 mph 87 % 0.00 in 0 W/m2
01:49 49.8 °F 45.8 °F 29.50 in West 19.0 mph 40.0 mph 86 % 0.00 in 0 W/m2
01:54 50.0 °F 45.7 °F 29.50 in West 21.0 mph 40.0 mph 85 % 0.00 in 0 W/m2
01:59 50.2 °F 45.8 °F 29.50 in West 19.0 mph 35.0 mph 85 % 0.00 in 0 W/m2
02:04 50.2 °F 45.8 °F 29.50 in West 19.0 mph 31.0 mph 85 % 0.00 in 0 W/m2
02:09 49.8 °F 45.5 °F 29.51 in West 20.0 mph 31.0 mph 85 % 0.00 in 0 W/m2
02:14 49.8 °F 45.5 °F 29.51 in West 17.0 mph 28.0 mph 85 % 0.00 in 0 W/m2
02:19 49.8 °F 45.2 °F 29.52 in West 16.0 mph 28.0 mph 84 % 0.00 in 0 W/m2
02:24 49.8 °F 45.5 °F 29.52 in West 15.0 mph 28.0 mph 85 % 0.00 in 0 W/m2
02:29 49.8 °F 45.5 °F 29.52 in West 14.0 mph 21.0 mph 85 % 0.00 in 0 W/m2
02:34 49.8 °F 45.5 °F 29.52 in West 13.0 mph 28.0 mph 85 % 0.00 in 0 W/m2
02:39 49.8 °F 45.2 °F 29.52 in West 14.0 mph 28.0 mph 84 % 0.00 in 0 W/m2
02:44 49.8 °F 45.2 °F 29.52 in West 15.0 mph 34.0 mph 84 % 0.00 in 0 W/m2
02:50 49.8 °F 45.2 °F 29.53 in West 17.0 mph 34.0 mph 84 % 0.00 in 0 W/m2
02:55 49.8 °F 45.2 °F 29.53 in West 18.0 mph 32.0 mph 84 % 0.00 in 0 W/m2
03:00 49.6 °F 45.0 °F 29.52 in West 17.0 mph 31.0 mph 84 % 0.00 in 0 W/m2
03:05 49.6 °F 45.0 °F 29.52 in West 15.0 mph 26.0 mph 84 % 0.00 in 0 W/m2
03:08 49.6 °F 45.3 °F 29.52 in West 15.0 mph 26.0 mph 85 % 0.00 in 0 W/m2
03:13 49.6 °F 45.3 °F 29.52 in West 14.0 mph 26.0 mph 85 % 0.00 in 0 W/m2
03:18 49.6 °F 45.6 °F 29.53 in West 15.0 mph 29.0 mph 86 % 0.00 in 0 W/m2
03:23 49.8 °F 45.5 °F 29.53 in West 18.0 mph 29.0 mph 85 % 0.00 in 0 W/m2
03:28 49.6 °F 45.6 °F 29.53 in West 17.0 mph 28.0 mph 86 % 0.00 in 0 W/m2
03:33 49.6 °F 45.6 °F 29.53 in West 17.0 mph 26.0 mph 86 % 0.00 in 0 W/m2
03:38 49.5 °F 45.4 °F 29.53 in West 19.0 mph 28.0 mph 86 % 0.00 in 0 W/m2
03:43 49.5 °F 45.4 °F 29.54 in West 17.0 mph 28.0 mph 86 % 0.00 in 0 W/m2
03:48 49.5 °F 45.8 °F 29.54 in West 17.0 mph 29.0 mph 87 % 0.00 in 0 W/m2
03:53 49.3 °F 45.9 °F 29.54 in West 18.0 mph 29.0 mph 88 % 0.00 in 0 W/m2
03:58 49.3 °F 45.9 °F 29.55 in West 17.0 mph 27.0 mph 88 % 0.00 in 0 W/m2
04:03 49.1 °F 45.7 °F 29.55 in West 17.0 mph 30.0 mph 88 % 0.00 in 0 W/m2
04:08 49.3 °F 45.6 °F 29.55 in West 17.0 mph 30.0 mph 87 % 0.00 in 0 W/m2
04:14 49.3 °F 45.6 °F 29.56 in West 16.0 mph 29.0 mph 87 % 0.00 in 0 W/m2
04:19 49.5 °F 46.1 °F 29.56 in West 14.0 mph 25.0 mph 88 % 0.00 in 0 W/m2
04:21 49.5 °F 46.1 °F 29.56 in West 13.0 mph 23.0 mph 88 % 0.00 in 0 W/m2
04:24 49.5 °F 46.1 °F 29.56 in West 12.0 mph 23.0 mph 88 % 0.00 in 0 W/m2
04:26 49.5 °F 46.1 °F 29.56 in West 12.0 mph 23.0 mph 88 % 0.00 in 0 W/m2
04:30 49.5 °F 46.4 °F 29.56 in West 14.0 mph 27.0 mph 89 % 0.00 in 0 W/m2
04:34 49.5 °F 46.4 °F 29.56 in West 15.0 mph 28.0 mph 89 % 0.00 in 0 W/m2
04:39 49.5 °F 46.4 °F 29.56 in West 16.0 mph 30.0 mph 89 % 0.00 in 0 W/m2
04:44 49.5 °F 46.4 °F 29.57 in West 16.0 mph 30.0 mph 89 % 0.00 in 0 W/m2
04:49 49.5 °F 46.4 °F 29.56 in West 15.0 mph 25.0 mph 89 % 0.00 in 0 W/m2
04:54 49.5 °F 46.1 °F 29.57 in West 16.0 mph 27.0 mph 88 % 0.00 in 0 W/m2
04:59 49.5 °F 46.1 °F 29.57 in West 15.0 mph 27.0 mph 88 % 0.00 in 0 W/m2
05:04 49.5 °F 46.4 °F 29.57 in West 13.0 mph 25.0 mph 89 % 0.00 in 0 W/m2
05:09 49.5 °F 46.4 °F 29.57 in West 11.0 mph 22.0 mph 89 % 0.00 in 0 W/m2
05:14 49.3 °F 46.5 °F 29.57 in West 11.0 mph 19.0 mph 90 % 0.00 in 0 W/m2
05:19 49.3 °F 46.5 °F 29.58 in West 12.0 mph 24.0 mph 90 % 0.00 in 0 W/m2
05:24 49.3 °F 46.5 °F 29.58 in West 15.0 mph 31.0 mph 90 % 0.00 in 0 W/m2
05:29 49.5 °F 46.6 °F 29.58 in West 16.0 mph 31.0 mph 90 % 0.00 in 0 W/m2
05:34 49.5 °F 46.4 °F 29.58 in West 17.0 mph 31.0 mph 89 % 0.00 in 0 W/m2
05:39 49.5 °F 46.4 °F 29.58 in West 17.0 mph 31.0 mph 89 % 0.00 in 0 W/m2
05:44 49.5 °F 46.4 °F 29.58 in West 16.0 mph 25.0 mph 89 % 0.00 in 0 W/m2
05:49 49.5 °F 46.4 °F 29.59 in West 15.0 mph 25.0 mph 89 % 0.00 in 0 W/m2
05:54 49.3 °F 46.2 °F 29.59 in West 16.0 mph 26.0 mph 89 % 0.00 in 0 W/m2
05:59 49.3 °F 46.2 °F 29.59 in West 17.0 mph 26.0 mph 89 % 0.00 in 0 W/m2
06:04 49.3 °F 46.2 °F 29.59 in West 16.0 mph 26.0 mph 89 % 0.00 in 0 W/m2
06:09 49.3 °F 46.2 °F 29.60 in West 16.0 mph 29.0 mph 89 % 0.00 in 0 W/m2
06:14 49.3 °F 46.2 °F 29.60 in West 18.0 mph 30.0 mph 89 % 0.00 in 0 W/m2
06:19 49.1 °F 45.7 °F 29.60 in West 17.0 mph 30.0 mph 88 % 0.00 in 0 W/m2
06:24 49.3 °F 46.2 °F 29.61 in West 17.0 mph 29.0 mph 89 % 0.00 in 0 W/m2
06:29 49.3 °F 46.2 °F 29.61 in West 18.0 mph 29.0 mph 89 % 0.00 in 0 W/m2
06:34 49.1 °F 46.0 °F 29.61 in West 16.0 mph 28.0 mph 89 % 0.00 in 0 W/m2
06:39 48.9 °F 45.8 °F 29.62 in West 15.0 mph 28.0 mph 89 % 0.00 in 0 W/m2
06:44 48.9 °F 45.8 °F 29.62 in West 16.0 mph 31.0 mph 89 % 0.00 in 0 W/m2
06:49 49.1 °F 46.0 °F 29.61 in West 16.0 mph 31.0 mph 89 % 0.00 in 0 W/m2
06:54 49.3 °F 45.9 °F 29.61 in West 16.0 mph 30.0 mph 88 % 0.00 in 0 W/m2
06:59 49.5 °F 45.8 °F 29.61 in West 17.0 mph 30.0 mph 87 % 0.00 in 0 W/m2
07:04 49.5 °F 45.4 °F 29.61 in West 18.0 mph 32.0 mph 86 % 0.00 in 0 W/m2
07:09 49.6 °F 45.6 °F 29.61 in West 19.0 mph 32.0 mph 86 % 0.00 in 0 W/m2
07:11 49.6 °F 45.6 °F 29.61 in West 19.0 mph 32.0 mph 86 % 0.00 in 0 W/m2
07:16 49.6 °F 45.6 °F 29.62 in West 17.0 mph 28.0 mph 86 % 0.00 in 0 W/m2
07:21 49.5 °F 45.1 °F 29.62 in West 16.0 mph 28.0 mph 85 % 0.00 in 0 W/m2
07:26 49.6 °F 45.6 °F 29.62 in West 19.0 mph 31.0 mph 86 % 0.00 in 0 W/m2
07:28 49.6 °F 45.6 °F 29.62 in West 20.0 mph 31.0 mph 86 % 0.00 in 0 W/m2
07:33 49.5 °F 45.4 °F 29.63 in West 20.0 mph 31.0 mph 86 % 0.00 in 0 W/m2
07:38 49.5 °F 45.4 °F 29.63 in West 18.0 mph 30.0 mph 86 % 0.00 in 0 W/m2
07:43 49.5 °F 45.4 °F 29.63 in West 17.0 mph 30.0 mph 86 % 0.00 in 0 W/m2
07:48 49.5 °F 45.4 °F 29.63 in West 18.0 mph 31.0 mph 86 % 0.00 in 0 W/m2
07:53 49.5 °F 45.4 °F 29.63 in West 18.0 mph 31.0 mph 86 % 0.00 in 5 W/m2
07:58 49.5 °F 45.4 °F 29.64 in West 18.0 mph 30.0 mph 86 % 0.00 in 9 W/m2
08:03 49.5 °F 45.1 °F 29.64 in West 20.0 mph 36.0 mph 85 % 0.00 in 14 W/m2
08:08 49.5 °F 45.4 °F 29.64 in West 19.0 mph 36.0 mph 86 % 0.00 in 18 W/m2
08:13 49.3 °F 45.3 °F 29.64 in West 18.0 mph 30.0 mph 86 % 0.00 in 23 W/m2
08:18 49.3 °F 45.3 °F 29.64 in West 19.0 mph 31.0 mph 86 % 0.00 in 25 W/m2
08:23 49.3 °F 45.3 °F 29.64 in West 20.0 mph 31.0 mph 86 % 0.00 in 26 W/m2
08:28 49.3 °F 45.3 °F 29.65 in West 19.0 mph 32.0 mph 86 % 0.00 in 19 W/m2
08:33 49.3 °F 45.3 °F 29.65 in West 18.0 mph 32.0 mph 86 % 0.00 in 18 W/m2
08:38 49.3 °F 45.3 °F 29.65 in West 18.0 mph 36.0 mph 86 % 0.00 in 23 W/m2
08:43 49.3 °F 45.0 °F 29.66 in West 20.0 mph 36.0 mph 85 % 0.00 in 30 W/m2
08:48 49.3 °F 45.0 °F 29.66 in West 20.0 mph 33.0 mph 85 % 0.00 in 35 W/m2
08:54 49.5 °F 44.8 °F 29.66 in West 21.0 mph 38.0 mph 84 % 0.00 in 39 W/m2
08:59 49.6 °F 45.0 °F 29.66 in West 20.0 mph 38.0 mph 84 % 0.00 in 42 W/m2
09:04 49.6 °F 45.0 °F 29.66 in WNW 18.0 mph 35.0 mph 84 % 0.00 in 42 W/m2
09:09 49.6 °F 45.0 °F 29.66 in West 19.0 mph 34.0 mph 84 % 0.00 in 46 W/m2
09:14 49.6 °F 45.3 °F 29.67 in West 19.0 mph 34.0 mph 85 % 0.00 in 60 W/m2
09:19 49.6 °F 45.3 °F 29.67 in West 19.0 mph 30.0 mph 85 % 0.00 in 77 W/m2
09:24 49.6 °F 45.3 °F 29.68 in West 18.0 mph 29.0 mph 85 % 0.00 in 72 W/m2
09:29 49.6 °F 45.3 °F 29.68 in West 18.0 mph 32.0 mph 85 % 0.00 in 72 W/m2
09:34 49.6 °F 45.3 °F 29.68 in West 19.0 mph 32.0 mph 85 % 0.00 in 65 W/m2
09:39 49.6 °F 45.3 °F 29.68 in West 19.0 mph 30.0 mph 85 % 0.00 in 83 W/m2
09:44 49.6 °F 45.3 °F 29.68 in West 19.0 mph 30.0 mph 85 % 0.00 in 88 W/m2
09:49 49.6 °F 45.0 °F 29.68 in WNW 20.0 mph 36.0 mph 84 % 0.00 in 95 W/m2
09:54 49.6 °F 45.0 °F 29.68 in WNW 22.0 mph 36.0 mph 84 % 0.00 in 97 W/m2
09:59 49.6 °F 45.3 °F 29.68 in WNW 20.0 mph 34.0 mph 85 % 0.00 in 91 W/m2
10:04 49.6 °F 45.0 °F 29.68 in West 19.0 mph 33.0 mph 84 % 0.00 in 86 W/m2
10:09 49.6 °F 45.0 °F 29.69 in West 18.0 mph 33.0 mph 84 % 0.00 in 84 W/m2
10:14 49.6 °F 45.0 °F 29.69 in WNW 19.0 mph 33.0 mph 84 % 0.00 in 86 W/m2
10:19 49.8 °F 45.2 °F 29.70 in WNW 19.0 mph 31.0 mph 84 % 0.00 in 95 W/m2
10:24 49.8 °F 45.2 °F 29.70 in WNW 19.0 mph 32.0 mph 84 % 0.00 in 105 W/m2
10:29 49.8 °F 45.2 °F 29.70 in WNW 17.0 mph 32.0 mph 84 % 0.00 in 144 W/m2
10:34 50.2 °F 45.5 °F 29.70 in WNW 16.0 mph 30.0 mph 84 % 0.00 in 144 W/m2
10:39 50.2 °F 45.5 °F 29.71 in WNW 17.0 mph 30.0 mph 84 % 0.00 in 139 W/m2
10:44 50.4 °F 45.7 °F 29.71 in West 18.0 mph 32.0 mph 84 % 0.00 in 163 W/m2
10:49 50.4 °F 45.7 °F 29.71 in West 18.0 mph 32.0 mph 84 % 0.00 in 102 W/m2
10:54 50.4 °F 45.4 °F 29.72 in West 18.0 mph 32.0 mph 83 % 0.00 in 91 W/m2
10:59 50.4 °F 45.4 °F 29.72 in West 18.0 mph 28.0 mph 83 % 0.00 in 169 W/m2
11:04 50.5 °F 45.6 °F 29.72 in West 18.0 mph 28.0 mph 83 % 0.00 in 144 W/m2
11:09 50.5 °F 45.6 °F 29.72 in WNW 19.0 mph 38.0 mph 83 % 0.00 in 160 W/m2
11:14 50.7 °F 45.4 °F 29.73 in West 19.0 mph 38.0 mph 82 % 0.00 in 216 W/m2
11:19 51.1 °F 45.8 °F 29.73 in WNW 18.0 mph 28.0 mph 82 % 0.00 in 151 W/m2
11:24 51.1 °F 45.5 °F 29.73 in WNW 18.0 mph 31.0 mph 81 % 0.00 in 160 W/m2
11:29 51.3 °F 45.6 °F 29.74 in WNW 18.0 mph 33.0 mph 81 % 0.00 in 142 W/m2
11:34 51.3 °F 45.6 °F 29.74 in WNW 20.0 mph 35.0 mph 81 % 0.00 in 209 W/m2
11:36 51.3 °F 45.6 °F 29.74 in WNW 19.0 mph 35.0 mph 81 % 0.00 in 200 W/m2
11:41 51.4 °F 45.8 °F 29.74 in WNW 18.0 mph 32.0 mph 81 % 0.00 in 536 W/m2
11:46 51.8 °F 45.8 °F 29.75 in WNW 18.0 mph 32.0 mph 80 % 0.00 in 200 W/m2
11:51 51.6 °F 45.7 °F 29.75 in WNW 17.0 mph 29.0 mph 80 % 0.00 in 278 W/m2
11:56 51.6 °F 45.7 °F 29.75 in WNW 18.0 mph 29.0 mph 80 % 0.00 in 206 W/m2
12:01 51.4 °F 45.8 °F 29.76 in WNW 16.0 mph 28.0 mph 81 % 0.00 in 188 W/m2
12:06 51.4 °F 45.1 °F 29.76 in WNW 18.0 mph 38.0 mph 79 % 0.00 in 192 W/m2
12:11 51.4 °F 45.1 °F 29.76 in WNW 20.0 mph 38.0 mph 79 % 0.00 in 515 W/m2
12:16 51.6 °F 45.3 °F 29.76 in WNW 18.0 mph 33.0 mph 79 % 0.00 in 155 W/m2
12:21 52.0 °F 45.7 °F 29.76 in WNW 18.0 mph 33.0 mph 79 % 0.00 in 153 W/m2
12:26 52.0 °F 45.3 °F 29.77 in WNW 18.0 mph 32.0 mph 78 % 0.00 in 169 W/m2
12:31 52.0 °F 45.3 °F 29.77 in WNW 19.0 mph 38.0 mph 78 % 0.00 in 181 W/m2
12:36 52.0 °F 45.3 °F 29.78 in West 21.0 mph 38.0 mph 78 % 0.00 in 244 W/m2
12:41 52.0 °F 45.3 °F 29.78 in West 20.0 mph 33.0 mph 78 % 0.00 in 172 W/m2
12:46 52.0 °F 45.3 °F 29.77 in WNW 18.0 mph 33.0 mph 78 % 0.00 in 218 W/m2
12:51 52.0 °F 45.3 °F 29.78 in West 18.0 mph 33.0 mph 78 % 0.00 in 216 W/m2
12:56 52.0 °F 45.3 °F 29.78 in WNW 18.0 mph 30.0 mph 78 % 0.00 in 206 W/m2
13:01 52.2 °F 45.2 °F 29.78 in WNW 19.0 mph 30.0 mph 77 % 0.00 in 274 W/m2
13:06 52.5 °F 45.5 °F 29.79 in West 19.0 mph 32.0 mph 77 % 0.00 in 160 W/m2
13:12 52.5 °F 45.2 °F 29.78 in West 17.0 mph 32.0 mph 76 % 0.00 in 155 W/m2
13:17 52.5 °F 45.5 °F 29.79 in West 16.0 mph 26.0 mph 77 % 0.00 in 148 W/m2
13:22 52.3 °F 45.3 °F 29.79 in West 16.0 mph 29.0 mph 77 % 0.00 in 171 W/m2
13:25 52.3 °F 45.0 °F 29.79 in WNW 17.0 mph 32.0 mph 76 % 0.00 in 151 W/m2
13:30 52.3 °F 45.0 °F 29.80 in WNW 19.0 mph 32.0 mph 76 % 0.00 in 153 W/m2
13:35 52.3 °F 45.0 °F 29.79 in West 19.0 mph 31.0 mph 76 % 0.00 in 153 W/m2
13:40 52.3 °F 45.0 °F 29.79 in WNW 18.0 mph 31.0 mph 76 % 0.00 in 195 W/m2
13:45 52.5 °F 45.2 °F 29.80 in WNW 19.0 mph 31.0 mph 76 % 0.00 in 174 W/m2
13:50 52.5 °F 45.2 °F 29.80 in West 19.0 mph 31.0 mph 76 % 0.00 in 167 W/m2
14:00 52.5 °F 45.2 °F 29.80 in West 18.0 mph 32.0 mph 76 % 0.00 in 139 W/m2
14:05 52.5 °F 45.2 °F 29.80 in West 17.0 mph 30.0 mph 76 % 0.00 in 141 W/m2
14:10 52.5 °F 44.8 °F 29.81 in West 19.0 mph 30.0 mph 75 % 0.00 in 141 W/m2
14:15 52.5 °F 45.2 °F 29.80 in West 18.0 mph 31.0 mph 76 % 0.00 in 149 W/m2
14:20 52.9 °F 45.5 °F 29.81 in West 18.0 mph 31.0 mph 76 % 0.00 in 373 W/m2
14:25 53.2 °F 45.5 °F 29.81 in West 19.0 mph 32.0 mph 75 % 0.00 in 179 W/m2
14:30 53.1 °F 45.3 °F 29.81 in West 20.0 mph 40.0 mph 75 % 0.00 in 169 W/m2
14:35 52.9 °F 45.5 °F 29.81 in WNW 20.0 mph 40.0 mph 76 % 0.00 in 207 W/m2
14:40 52.9 °F 45.5 °F 29.81 in WNW 17.0 mph 31.0 mph 76 % 0.00 in 225 W/m2
14:45 53.1 °F 45.7 °F 29.81 in WNW 15.0 mph 29.0 mph 76 % 0.00 in 383 W/m2
14:46 53.1 °F 45.7 °F 29.81 in West 15.0 mph 29.0 mph 76 % 0.00 in 383 W/m2
14:51 53.4 °F 45.7 °F 29.81 in WNW 17.0 mph 30.0 mph 75 % 0.00 in 348 W/m2
14:56 53.8 °F 45.7 °F 29.81 in WNW 18.0 mph 31.0 mph 74 % 0.00 in 343 W/m2
15:01 53.8 °F 45.3 °F 29.81 in WNW 18.0 mph 31.0 mph 73 % 0.00 in 334 W/m2
15:05 53.8 °F 45.3 °F 29.81 in WNW 17.0 mph 31.0 mph 73 % 0.00 in 327 W/m2
15:10 53.8 °F 45.3 °F 29.81 in WNW 17.0 mph 32.0 mph 73 % 0.00 in 322 W/m2
15:15 53.8 °F 45.0 °F 29.81 in WNW 19.0 mph 33.0 mph 72 % 0.00 in 311 W/m2
15:20 53.8 °F 45.0 °F 29.81 in WNW 22.0 mph 36.0 mph 72 % 0.00 in 301 W/m2
15:25 53.6 °F 45.2 °F 29.82 in WNW 23.0 mph 36.0 mph 73 % 0.00 in 292 W/m2
15:30 53.4 °F 45.0 °F 29.82 in WNW 23.0 mph 34.0 mph 73 % 0.00 in 260 W/m2
15:35 53.4 °F 45.0 °F 29.82 in WNW 22.0 mph 34.0 mph 73 % 0.00 in 272 W/m2
15:41 53.2 °F 44.8 °F 29.82 in WNW 21.0 mph 38.0 mph 73 % 0.00 in 258 W/m2
15:46 53.2 °F 44.8 °F 29.82 in WNW 22.0 mph 38.0 mph 73 % 0.00 in 248 W/m2
15:50 53.2 °F 44.8 °F 29.83 in WNW 21.0 mph 35.0 mph 73 % 0.00 in 241 W/m2
15:56 53.2 °F 44.4 °F 29.84 in WNW 21.0 mph 35.0 mph 72 % 0.00 in 139 W/m2
16:01 53.1 °F 44.6 °F 29.84 in WNW 20.0 mph 32.0 mph 73 % 0.00 in 287 W/m2
16:06 53.2 °F 44.8 °F 29.84 in WNW 19.0 mph 31.0 mph 73 % 0.00 in 250 W/m2
16:11 53.2 °F 44.8 °F 29.84 in WNW 18.0 mph 31.0 mph 73 % 0.00 in 199 W/m2
16:16 53.1 °F 44.6 °F 29.84 in WNW 17.0 mph 27.0 mph 73 % 0.00 in 67 W/m2
16:21 52.7 °F 44.6 °F 29.84 in WNW 17.0 mph 29.0 mph 74 % 0.00 in 209 W/m2
16:26 52.7 °F 44.6 °F 29.85 in WNW 17.0 mph 30.0 mph 74 % 0.00 in 91 W/m2
16:31 52.5 °F 44.5 °F 29.85 in WNW 17.0 mph 30.0 mph 74 % 0.00 in 46 W/m2
16:36 52.3 °F 44.3 °F 29.85 in WNW 17.0 mph 28.0 mph 74 % 0.00 in 39 W/m2
16:37 52.3 °F 44.6 °F 29.85 in WNW 17.0 mph 28.0 mph 75 % 0.00 in 39 W/m2
16:42 52.0 °F 44.3 °F 29.85 in WNW 16.0 mph 23.0 mph 75 % 0.00 in 32 W/m2
16:47 51.6 °F 44.0 °F 29.85 in WNW 15.0 mph 27.0 mph 75 % 0.00 in 30 W/m2
16:52 51.6 °F 44.3 °F 29.86 in WNW 13.0 mph 27.0 mph 76 % 0.00 in 26 W/m2
16:57 51.4 °F 44.1 °F 29.86 in West 11.0 mph 20.0 mph 76 % 0.00 in 21 W/m2
17:02 51.3 °F 44.0 °F 29.86 in West 12.0 mph 21.0 mph 76 % 0.00 in 25 W/m2
17:07 51.3 °F 44.0 °F 29.87 in West 12.0 mph 21.0 mph 76 % 0.00 in 35 W/m2
17:12 51.3 °F 44.0 °F 29.88 in West 11.0 mph 23.0 mph 76 % 0.00 in 39 W/m2
17:17 51.4 °F 44.1 °F 29.88 in West 10.0 mph 23.0 mph 76 % 0.00 in 46 W/m2
17:22 51.4 °F 44.1 °F 29.88 in West 9.0 mph 18.0 mph 76 % 0.00 in 44 W/m2
17:27 51.6 °F 44.0 °F 29.88 in WNW 10.0 mph 18.0 mph 75 % 0.00 in 28 W/m2
17:32 51.6 °F 44.0 °F 29.88 in WNW 10.0 mph 19.0 mph 75 % 0.00 in 26 W/m2
17:37 51.4 °F 43.8 °F 29.89 in WNW 11.0 mph 22.0 mph 75 % 0.00 in 18 W/m2
17:42 51.4 °F 43.8 °F 29.89 in WNW 11.0 mph 22.0 mph 75 % 0.00 in 16 W/m2
17:47 51.3 °F 43.6 °F 29.89 in WNW 10.0 mph 15.0 mph 75 % 0.00 in 9 W/m2
17:52 51.3 °F 43.6 °F 29.89 in WNW 10.0 mph 15.0 mph 75 % 0.00 in 5 W/m2
17:57 51.1 °F 43.4 °F 29.90 in WNW 10.0 mph 15.0 mph 75 % 0.00 in 0 W/m2
18:02 50.9 °F 43.6 °F 29.90 in WNW 8.0 mph 15.0 mph 76 % 0.00 in 0 W/m2
18:07 50.7 °F 43.1 °F 29.90 in West 8.0 mph 15.0 mph 75 % 0.00 in 0 W/m2
18:12 50.5 °F 43.3 °F 29.90 in West 8.0 mph 14.0 mph 76 % 0.00 in 0 W/m2
18:17 50.5 °F 43.3 °F 29.90 in West 8.0 mph 14.0 mph 76 % 0.00 in 0 W/m2
18:22 50.4 °F 43.1 °F 29.90 in West 7.0 mph 14.0 mph 76 % 0.00 in 0 W/m2
18:27 50.2 °F 42.9 °F 29.90 in WNW 5.0 mph 14.0 mph 76 % 0.00 in 0 W/m2
18:32 50.0 °F 42.7 °F 29.91 in WNW 5.0 mph 12.0 mph 76 % 0.00 in 0 W/m2
18:37 49.8 °F 42.6 °F 29.91 in WNW 6.0 mph 12.0 mph 76 % 0.00 in 0 W/m2
18:42 49.6 °F 42.7 °F 29.91 in WNW 6.0 mph 11.0 mph 77 % 0.00 in 0 W/m2
18:47 49.6 °F 42.7 °F 29.91 in WNW 6.0 mph 11.0 mph 77 % 0.00 in 0 W/m2
18:52 49.5 °F 42.5 °F 29.91 in WNW 6.0 mph 11.0 mph 77 % 0.00 in 0 W/m2
18:57 49.5 °F 42.9 °F 29.92 in WNW 7.0 mph 14.0 mph 78 % 0.00 in 0 W/m2
19:02 49.6 °F 43.1 °F 29.92 in WNW 8.0 mph 14.0 mph 78 % 0.00 in 0 W/m2
19:07 49.6 °F 43.1 °F 29.92 in WNW 8.0 mph 14.0 mph 78 % 0.00 in 0 W/m2
19:12 50.0 °F 43.1 °F 29.92 in WNW 10.0 mph 16.0 mph 77 % 0.00 in 0 W/m2
19:17 50.2 °F 43.6 °F 29.92 in WNW 10.0 mph 18.0 mph 78 % 0.00 in 0 W/m2
19:22 50.2 °F 43.6 °F 29.92 in WNW 10.0 mph 18.0 mph 78 % 0.00 in 0 W/m2
19:25 50.2 °F 43.6 °F 29.92 in WNW 11.0 mph 18.0 mph 78 % 0.00 in 0 W/m2
19:30 50.0 °F 43.4 °F 29.92 in WNW 11.0 mph 18.0 mph 78 % 0.00 in 0 W/m2
19:35 50.0 °F 43.4 °F 29.92 in WNW 11.0 mph 18.0 mph 78 % 0.00 in 0 W/m2
19:40 49.8 °F 43.2 °F 29.93 in WNW 11.0 mph 20.0 mph 78 % 0.00 in 0 W/m2
19:45 49.8 °F 43.2 °F 29.93 in WNW 10.0 mph 20.0 mph 78 % 0.00 in 0 W/m2
19:50 49.8 °F 43.6 °F 29.93 in WNW 10.0 mph 20.0 mph 79 % 0.00 in 0 W/m2
19:55 49.6 °F 43.4 °F 29.93 in WNW 10.0 mph 15.0 mph 79 % 0.00 in 0 W/m2
20:00 49.6 °F 43.4 °F 29.93 in WNW 11.0 mph 18.0 mph 79 % 0.00 in 0 W/m2
20:05 49.6 °F 43.7 °F 29.93 in WNW 12.0 mph 18.0 mph 80 % 0.00 in 0 W/m2
20:10 49.6 °F 43.7 °F 29.93 in WNW 13.0 mph 22.0 mph 80 % 0.00 in 0 W/m2
20:15 49.6 °F 43.7 °F 29.93 in WNW 13.0 mph 22.0 mph 80 % 0.00 in 0 W/m2
20:20 49.6 °F 43.4 °F 29.93 in WNW 13.0 mph 21.0 mph 79 % 0.00 in 0 W/m2
20:22 49.6 °F 43.4 °F 29.94 in WNW 13.0 mph 21.0 mph 79 % 0.00 in 0 W/m2
20:27 49.6 °F 43.4 °F 29.94 in WNW 13.0 mph 21.0 mph 79 % 0.00 in 0 W/m2
20:32 49.5 °F 43.5 °F 29.94 in WNW 11.0 mph 18.0 mph 80 % 0.00 in 0 W/m2
20:36 49.5 °F 43.5 °F 29.94 in WNW 12.0 mph 20.0 mph 80 % 0.00 in 0 W/m2
20:41 49.5 °F 43.5 °F 29.94 in WNW 12.0 mph 20.0 mph 80 % 0.00 in 0 W/m2
20:46 49.3 °F 43.4 °F 29.94 in WNW 12.0 mph 21.0 mph 80 % 0.00 in 0 W/m2
20:51 49.3 °F 43.4 °F 29.94 in WNW 13.0 mph 21.0 mph 80 % 0.00 in 0 W/m2
20:56 49.3 °F 43.4 °F 29.94 in WNW 13.0 mph 21.0 mph 80 % 0.00 in 0 W/m2
21:01 49.3 °F 43.4 °F 29.94 in WNW 12.0 mph 19.0 mph 80 % 0.00 in 0 W/m2
21:06 49.3 °F 43.4 °F 29.94 in WNW 12.0 mph 20.0 mph 80 % 0.00 in 0 W/m2
21:11 49.3 °F 43.4 °F 29.94 in WNW 14.0 mph 22.0 mph 80 % 0.00 in 0 W/m2
21:17 49.3 °F 43.4 °F 29.94 in WNW 14.0 mph 22.0 mph 80 % 0.00 in 0 W/m2
21:22 49.3 °F 43.4 °F 29.94 in WNW 12.0 mph 19.0 mph 80 % 0.00 in 0 W/m2
21:27 49.3 °F 43.4 °F 29.94 in WNW 11.0 mph 19.0 mph 80 % 0.00 in 0 W/m2
21:32 49.1 °F 43.5 °F 29.95 in WNW 10.0 mph 18.0 mph 81 % 0.00 in 0 W/m2
21:37 48.9 °F 43.3 °F 29.95 in WNW 9.0 mph 16.0 mph 81 % 0.00 in 0 W/m2
21:42 48.9 °F 43.3 °F 29.95 in WNW 10.0 mph 18.0 mph 81 % 0.00 in 0 W/m2
21:47 48.9 °F 43.7 °F 29.95 in WNW 10.0 mph 18.0 mph 82 % 0.00 in 0 W/m2
21:52 48.9 °F 43.7 °F 29.95 in WNW 9.0 mph 16.0 mph 82 % 0.00 in 0 W/m2
21:57 48.7 °F 43.5 °F 29.95 in WNW 9.0 mph 14.0 mph 82 % 0.00 in 0 W/m2
22:02 48.7 °F 43.5 °F 29.95 in WNW 8.0 mph 15.0 mph 82 % 0.00 in 0 W/m2
22:07 48.7 °F 43.8 °F 29.95 in WNW 9.0 mph 15.0 mph 83 % 0.00 in 0 W/m2
22:12 48.7 °F 43.8 °F 29.95 in WNW 9.0 mph 15.0 mph 83 % 0.00 in 0 W/m2
22:17 48.7 °F 43.8 °F 29.96 in WNW 8.0 mph 14.0 mph 83 % 0.00 in 0 W/m2
22:22 48.7 °F 43.5 °F 29.96 in WNW 9.0 mph 14.0 mph 82 % 0.00 in 0 W/m2
22:27 48.7 °F 43.5 °F 29.96 in WNW 9.0 mph 14.0 mph 82 % 0.00 in 0 W/m2
22:32 48.7 °F 43.5 °F 29.96 in WNW 9.0 mph 14.0 mph 82 % 0.00 in 0 W/m2
22:37 48.7 °F 43.5 °F 29.96 in WNW 9.0 mph 13.0 mph 82 % 0.00 in 0 W/m2
22:42 48.7 °F 43.5 °F 29.95 in WNW 9.0 mph 15.0 mph 82 % 0.00 in 0 W/m2
22:47 48.7 °F 43.5 °F 29.95 in WNW 10.0 mph 16.0 mph 82 % 0.00 in 0 W/m2
22:52 48.7 °F 43.8 °F 29.96 in WNW 9.0 mph 16.0 mph 83 % 0.00 in 0 W/m2
22:57 48.7 °F 43.8 °F 29.96 in WNW 7.0 mph 12.0 mph 83 % 0.00 in 0 W/m2
23:02 48.7 °F 44.1 °F 29.96 in WNW 6.0 mph 13.0 mph 84 % 0.00 in 0 W/m2
23:07 48.6 °F 43.9 °F 29.96 in WNW 7.0 mph 13.0 mph 84 % 0.00 in 0 W/m2
23:12 48.6 °F 44.3 °F 29.97 in WNW 7.0 mph 13.0 mph 85 % 0.00 in 0 W/m2
23:17 48.4 °F 44.1 °F 29.97 in WNW 6.0 mph 13.0 mph 85 % 0.00 in 0 W/m2
23:22 48.4 °F 44.4 °F 29.97 in WNW 6.0 mph 15.0 mph 86 % 0.00 in 0 W/m2
23:27 48.4 °F 44.4 °F 29.96 in WNW 5.0 mph 15.0 mph 86 % 0.00 in 0 W/m2
23:32 48.2 °F 44.5 °F 29.96 in WNW 5.0 mph 10.0 mph 87 % 0.00 in 0 W/m2
23:37 48.2 °F 44.5 °F 29.96 in WNW 4.0 mph 8.0 mph 87 % 0.00 in 0 W/m2
23:42 48.0 °F 44.6 °F 29.96 in WNW 3.0 mph 10.0 mph 88 % 0.00 in 0 W/m2
23:47 48.0 °F 44.6 °F 29.96 in West 3.0 mph 10.0 mph 88 % 0.00 in 0 W/m2
23:52 48.0 °F 44.9 °F 29.96 in West 4.0 mph 9.0 mph 89 % 0.00 in 0 W/m2
23:57 48.0 °F 44.9 °F 29.96 in West 4.0 mph 9.0 mph 89 % 0.00 in 0 W/m2
Delerius-Weather
Compliments of Weather Underground - 2.25 mb

Data updates at regular intervals.